Time;durP1;ratioP1;P1;durP2;ratioP2;P2;SDS_P1;SDS_P2;PMS_P1;PMS_P2;Temp;Humidity;BMP_temperature;BMP_pressure;BME280_temperature;BME280_humidity;BME280_pressure;Samples;Min_cycle;Max_cycle;Signal;HPM_P1;HPM_P2
2023/12/14 00:04:25;;;;;;;5.38;3.75;;;;;;;6.94;100.00;97460.47;15294570;19;20010;-50
2023/12/14 00:09:53;;;;;;;3.20;2.90;;;;;;;7.00;100.00;97462.50;15292317;19;20017;-52
2023/12/14 00:15:18;;;;;;;3.22;2.92;;;;;;;6.93;100.00;97461.47;15292066;19;20025;-50
2023/12/14 00:20:42;;;;;;;2.30;2.17;;;;;;;6.87;100.00;97462.97;15291863;19;20017;-55
2023/12/14 00:26:09;;;;;;;2.50;2.30;;;;;;;6.85;100.00;97466.81;15294653;19;20023;-52
2023/12/14 00:31:34;;;;;;;3.03;2.00;;;;;;;6.87;100.00;97471.00;15284183;19;20022;-52
2023/12/14 00:36:59;;;;;;;1.70;1.60;;;;;;;6.79;100.00;97466.44;15292545;19;20022;-53
2023/12/14 00:42:26;;;;;;;3.13;1.60;;;;;;;6.77;100.00;97481.00;15290920;19;20015;-50
2023/12/14 00:47:51;;;;;;;1.80;1.60;;;;;;;6.76;100.00;97490.84;15291893;19;20640;-51
2023/12/14 00:53:15;;;;;;;3.00;1.90;;;;;;;6.67;100.00;97491.81;15288524;19;20018;-52
2023/12/14 00:58:42;;;;;;;1.63;1.50;;;;;;;6.63;100.00;97502.00;15292266;19;20018;-51
2023/12/14 01:04:07;;;;;;;1.50;1.40;;;;;;;6.62;100.00;97516.38;15277883;19;20016;-53
2023/12/14 01:09:33;;;;;;;1.60;1.50;;;;;;;6.66;100.00;97524.94;15284131;19;20743;-51
2023/12/14 01:15:00;;;;;;;1.67;1.58;;;;;;;6.63;100.00;97525.28;15288428;19;20018;-52
2023/12/14 01:20:25;;;;;;;1.50;1.40;;;;;;;6.63;100.00;97533.28;15288466;19;20017;-50
2023/12/14 01:25:50;;;;;;;1.92;1.75;;;;;;;6.61;100.00;97538.78;15289125;19;20014;-52
2023/12/14 01:31:17;;;;;;;1.80;1.70;;;;;;;6.59;100.00;97547.97;15286595;19;20036;-54
2023/12/14 01:36:42;;;;;;;3.15;2.55;;;;;;;6.55;100.00;97560.84;15284130;19;20024;-51
2023/12/14 01:42:07;;;;;;;3.10;2.80;;;;;;;6.51;100.00;97567.50;15280531;19;20018;-62
2023/12/14 01:47:35;;;;;;;2.67;2.47;;;;;;;6.57;100.00;97582.09;15287556;19;20019;-63
2023/12/14 01:53:01;;;;;;;3.17;2.53;;;;;;;6.65;100.00;97595.50;15278223;19;20089;-63
2023/12/14 01:58:26;;;;;;;2.60;2.40;;;;;;;6.68;100.00;97605.91;15288835;19;20014;-62
2023/12/14 02:03:55;;;;;;;3.65;2.90;;;;;;;6.62;100.00;97606.56;15280603;19;20046;-63
2023/12/14 02:09:19;;;;;;;3.42;3.08;;;;;;;6.55;100.00;97610.81;15277943;19;20018;-65
2023/12/14 02:14:44;;;;;;;3.28;2.92;;;;;;;6.55;100.00;97610.81;15283960;19;20073;-63
2023/12/14 02:20:11;;;;;;;3.13;2.92;;;;;;;6.60;100.00;97625.41;15299098;19;20018;-62
2023/12/14 02:25:38;;;;;;;4.22;3.40;;;;;;;6.61;100.00;97626.28;15300541;19;20014;-62
2023/12/14 02:31:03;;;;;;;3.88;3.00;;;;;;;6.65;100.00;97641.00;15296206;19;20034;-62
2023/12/14 02:36:28;;;;;;;3.38;3.08;;;;;;;6.61;100.00;97639.66;15298388;19;20367;-60
2023/12/14 02:41:55;;;;;;;3.35;3.05;;;;;;;6.60;100.00;97646.84;15289944;19;20046;-60
2023/12/14 02:47:20;;;;;;;3.35;3.05;;;;;;;6.58;100.00;97650.66;15298023;19;20371;-60
2023/12/14 02:52:44;;;;;;;3.97;3.33;;;;;;;6.56;100.00;97666.88;15294233;19;20760;-60
2023/12/14 02:58:11;;;;;;;4.13;3.67;;;;;;;6.54;100.00;97654.63;15296123;19;20018;-60
2023/12/14 03:03:36;;;;;;;4.15;3.78;;;;;;;6.48;100.00;97664.97;15291327;19;20018;-57
2023/12/14 03:09:01;;;;;;;4.93;3.65;;;;;;;6.39;100.00;97676.59;15297844;19;20463;-59
2023/12/14 03:14:28;;;;;;;4.85;4.07;;;;;;;6.34;100.00;97684.25;15293317;19;20736;-60
2023/12/14 03:19:53;;;;;;;2.40;2.20;;;;;;;6.35;100.00;97693.13;15295450;19;20379;-61
2023/12/14 03:25:18;;;;;;;3.00;2.70;;;;;;;6.23;100.00;97692.50;15296378;19;20014;-60
2023/12/14 03:30:45;;;;;;;3.00;2.70;;;;;;;6.14;100.00;97695.09;15294224;19;20025;-59
2023/12/14 03:36:10;;;;;;;2.30;2.10;;;;;;;6.14;100.00;97705.78;15268942;19;20020;-59
2023/12/14 03:41:41;;;;;;;3.30;3.00;;;;;;;6.07;100.00;97720.72;15294089;19;20014;-64
2023/12/14 03:47:08;;;;;;;3.83;3.43;;;;;;;6.04;100.00;97726.41;15292125;19;20011;-62
2023/12/14 03:52:34;;;;;;;3.90;3.50;;;;;;;5.92;100.00;97722.22;15289448;19;20799;-58
2023/12/14 03:57:59;;;;;;;7.75;4.32;;;;;;;5.72;100.00;97722.28;15294439;19;20519;-62
2023/12/14 04:03:26;;;;;;;7.43;5.00;;;;;;;5.55;100.00;97737.28;15326912;19;20003;-63
2023/12/14 04:08:44;;;;;;;7.82;5.05;;;;;;;5.45;100.00;97741.81;15293708;19;20031;-62
2023/12/14 04:14:10;;;;;;;8.18;5.15;;;;;;;5.37;100.00;97753.22;15288888;19;20899;-64
2023/12/14 04:19:37;;;;;;;9.10;5.68;;;;;;;5.33;100.00;97770.53;15290604;19;20035;-63
2023/12/14 04:25:02;;;;;;;7.50;5.45;;;;;;;5.27;100.00;97781.78;15288004;19;20019;-63
2023/12/14 04:30:26;;;;;;;7.82;5.20;;;;;;;5.18;100.00;97788.81;15288611;19;20403;-61
2023/12/14 04:35:53;;;;;;;9.30;6.75;;;;;;;5.12;100.00;97792.06;15288992;19;20019;-63
2023/12/14 04:41:18;;;;;;;18.13;9.73;;;;;;;5.05;100.00;97807.81;15287363;19;20468;-63
2023/12/14 04:46:43;;;;;;;21.10;10.73;;;;;;;5.03;100.00;97823.13;15290009;19;20016;-64
2023/12/14 04:52:10;;;;;;;15.30;9.90;;;;;;;4.98;100.00;97836.91;15283971;19;20376;-63
2023/12/14 04:57:35;;;;;;;15.02;9.93;;;;;;;4.85;100.00;97839.00;15288184;19;20010;-65
2023/12/14 05:02:59;;;;;;;20.98;12.05;;;;;;;4.77;100.00;97839.69;15285797;19;20021;-64
2023/12/14 05:08:26;;;;;;;18.95;11.30;;;;;;;4.75;100.00;97841.66;15287738;19;20629;-63
2023/12/14 05:13:52;;;;;;;24.65;13.00;;;;;;;4.74;100.00;97858.66;15286953;19;20014;-64
2023/12/14 05:19:17;;;;;;;83.65;15.30;;;;;;;4.74;100.00;97862.16;15286013;19;20359;-63
2023/12/14 05:24:44;;;;;;;99.85;16.08;;;;;;;4.76;100.00;97875.38;15283492;19;20010;-62
2023/12/14 05:30:10;;;;;;;171.05;17.08;;;;;;;4.81;100.00;97899.81;15284872;19;20018;-64
2023/12/14 05:35:36;;;;;;;251.60;17.10;;;;;;;4.79;100.00;97901.78;15280490;19;20026;-63
2023/12/14 05:41:10;;;;;;;20.60;11.93;;;;;;;4.80;100.00;97913.31;15286200;19;20029;-62
2023/12/14 05:46:35;;;;;;;17.92;10.18;;;;;;;4.74;100.00;97920.03;15284480;19;20015;-64
2023/12/14 05:52:00;;;;;;;23.05;12.45;;;;;;;4.71;100.00;97928.31;15293996;19;20020;-65
2023/12/14 05:57:27;;;;;;;18.60;10.77;;;;;;;4.65;100.00;97932.38;15296281;19;20010;-64
2023/12/14 06:02:52;;;;;;;18.17;10.57;;;;;;;4.58;100.00;97958.75;15297998;19;20018;-63
2023/12/14 06:08:17;;;;;;;20.42;12.00;;;;;;;4.59;100.00;97962.25;15301924;19;20783;-64
2023/12/14 06:13:44;;;;;;;25.27;13.55;;;;;;;4.54;100.00;97977.81;15295970;19;20027;-63
2023/12/14 06:19:09;;;;;;;16.38;10.13;;;;;;;4.47;100.00;97982.84;15300763;19;20021;-62
2023/12/14 06:24:33;;;;;;;11.85;7.43;;;;;;;4.40;100.00;97993.19;15302245;19;20033;-64
2023/12/14 06:30:00;;;;;;;9.63;7.20;;;;;;;4.38;100.00;98000.47;15294035;19;20010;-65
2023/12/14 06:35:25;;;;;;;9.50;7.28;;;;;;;4.37;100.00;98013.97;15300202;19;20025;-64
2023/12/14 06:40:50;;;;;;;11.18;8.75;;;;;;;4.39;100.00;98020.00;15296830;19;20022;-64
2023/12/14 06:46:17;;;;;;;10.38;8.15;;;;;;;4.40;100.00;98033.19;15299417;19;20010;-62
2023/12/14 06:51:42;;;;;;;11.05;8.15;;;;;;;4.43;100.00;98040.94;15295550;19;20019;-63
2023/12/14 06:57:06;;;;;;;9.90;8.60;;;;;;;4.44;100.00;98052.44;15298174;19;20021;-63
2023/12/14 07:02:33;;;;;;;11.38;8.20;;;;;;;4.48;100.00;98070.72;15289261;19;20025;-63
2023/12/14 07:07:59;;;;;;;9.70;7.68;;;;;;;4.49;100.00;98076.94;15297489;19;20011;-62
2023/12/14 07:13:24;;;;;;;11.30;9.60;;;;;;;4.52;100.00;98095.34;15293718;19;20010;-63
2023/12/14 07:18:51;;;;;;;11.05;9.38;;;;;;;4.46;100.00;98103.84;15297081;19;20021;-63
2023/12/14 07:24:16;;;;;;;9.82;7.78;;;;;;;4.38;100.00;98117.00;15289590;19;20028;-63
2023/12/14 07:29:40;;;;;;;13.18;9.60;;;;;;;4.26;100.00;98110.88;15297058;19;20476;-64
2023/12/14 07:35:08;;;;;;;13.73;10.52;;;;;;;4.15;100.00;98117.94;15291054;19;20016;-64
2023/12/14 07:40:33;;;;;;;12.30;9.48;;;;;;;4.08;100.00;98137.25;15295088;19;20086;-63
2023/12/14 07:46:04;;;;;;;10.88;8.85;;;;;;;4.00;100.00;98140.53;15295289;19;20341;-61
2023/12/14 07:51:31;;;;;;;8.33;6.50;;;;;;;3.90;100.00;98153.78;15295266;19;20010;-63
2023/12/14 07:56:56;;;;;;;6.95;6.18;;;;;;;3.82;100.00;98159.75;15295065;19;20017;-63
2023/12/14 08:02:22;;;;;;;7.50;6.68;;;;;;;3.80;100.00;98182.16;15290964;19;20021;-63
2023/12/14 08:07:52;;;;;;;5.80;5.20;;;;;;;3.76;100.00;98186.91;15291526;19;20014;-62
2023/12/14 08:13:18;;;;;;;5.00;4.50;;;;;;;3.77;100.00;98198.41;15290727;19;20039;-63
2023/12/14 08:18:44;;;;;;;4.72;4.22;;;;;;;3.76;100.00;98196.69;15293685;19;20039;-62
2023/12/14 08:24:12;;;;;;;3.63;3.33;;;;;;;3.72;100.00;98205.91;15289441;19;20022;-62
2023/12/14 08:29:38;;;;;;;4.45;3.80;;;;;;;3.70;100.00;98209.53;15293163;19;20019;-62
2023/12/14 08:35:03;;;;;;;3.58;3.28;;;;;;;3.71;100.00;98218.38;15290734;19;20022;-62
2023/12/14 08:40:30;;;;;;;5.57;3.78;;;;;;;3.78;100.00;98232.91;15291831;19;20021;-63
2023/12/14 08:45:56;;;;;;;5.65;4.00;;;;;;;3.83;100.00;98245.84;15292411;19;20096;-62
2023/12/14 08:51:21;;;;;;;4.60;3.75;;;;;;;3.83;100.00;98261.84;15291191;19;20018;-63
2023/12/14 08:56:48;;;;;;;3.53;3.22;;;;;;;3.77;100.00;98279.16;15290633;19;20015;-63
2023/12/14 09:02:14;;;;;;;4.10;3.42;;;;;;;3.74;100.00;98279.44;15282018;19;20010;-62
2023/12/14 09:07:39;;;;;;;4.03;3.63;;;;;;;3.76;100.00;98284.63;15286061;19;20018;-62
2023/12/14 09:13:06;;;;;;;3.97;3.67;;;;;;;3.83;100.00;98296.47;15291733;19;20007;-63
2023/12/14 09:18:32;;;;;;;3.28;2.95;;;;;;;3.83;100.00;98310.66;15297696;19;20070;-63
2023/12/14 09:23:56;;;;;;;2.20;2.00;;;;;;;3.81;100.00;98319.78;15295709;19;20429;-63
2023/12/14 09:29:23;;;;;;;2.30;2.10;;;;;;;3.74;100.00;98326.53;15304176;19;20059;-63
2023/12/14 09:34:51;;;;;;;2.55;2.35;;;;;;;3.72;100.00;98339.13;15302363;19;20011;-63
2023/12/14 09:40:18;;;;;;;2.70;2.50;;;;;;;3.76;100.00;98333.47;15301049;19;20035;-63
2023/12/14 09:45:54;;;;;;;3.15;2.85;;;;;;;3.75;100.00;98336.22;15308067;19;20022;-63
2023/12/14 09:51:20;;;;;;;3.25;2.95;;;;;;;3.76;100.00;98353.91;15308825;19;20039;-64
2023/12/14 09:56:55;;;;;;;3.30;3.00;;;;;;;3.77;100.00;98352.94;15307652;19;20022;-64
2023/12/14 10:02:27;;;;;;;3.42;3.13;;;;;;;3.78;100.00;98363.47;15287864;19;20022;-63
2023/12/14 10:07:52;;;;;;;3.75;3.40;;;;;;;3.77;100.00;98369.75;15287420;19;20021;-63
2023/12/14 10:13:17;;;;;;;3.90;3.60;;;;;;;3.78;100.00;98375.97;15279291;19;20021;-62
2023/12/14 10:18:45;;;;;;;3.53;3.22;;;;;;;3.83;100.00;98384.44;15287934;19;20018;-61
2023/12/14 10:24:11;;;;;;;4.40;3.78;;;;;;;3.88;100.00;98394.75;15283494;19;20015;-62
2023/12/14 10:29:37;;;;;;;4.10;3.30;;;;;;;3.89;100.00;98405.28;15286260;19;20022;-62
2023/12/14 10:35:05;;;;;;;5.72;3.90;;;;;;;3.84;100.00;98404.78;15286837;19;20006;-62
2023/12/14 10:40:33;;;;;;;5.05;4.43;;;;;;;3.76;100.00;98409.88;15297953;19;20077;-62
2023/12/14 10:46:05;;;;;;;4.70;4.20;;;;;;;3.73;100.00;98410.09;15296152;19;20032;-62
2023/12/14 10:51:33;;;;;;;5.65;4.53;;;;;;;3.69;100.00;98415.69;15295380;19;20025;-62
2023/12/14 10:56:58;;;;;;;5.40;4.57;;;;;;;3.69;100.00;98407.69;15298026;19;20011;-62
2023/12/14 11:02:23;;;;;;;5.55;4.60;;;;;;;3.60;100.00;98424.34;15294931;19;20033;-62
2023/12/14 11:08:00;;;;;;;6.53;3.80;;;;;;;3.58;100.00;98426.31;15300087;19;20014;-63
2023/12/14 11:13:27;;;;;;;5.15;4.22;;;;;;;3.57;100.00;98440.59;15292210;19;20430;-62
2023/12/14 11:18:53;;;;;;;3.90;3.40;;;;;;;3.59;100.00;98451.97;15292462;19;20017;-61
2023/12/14 11:24:20;;;;;;;4.30;3.90;;;;;;;3.62;100.00;98462.38;15297763;19;20011;-62
2023/12/14 11:29:47;;;;;;;3.45;3.15;;;;;;;3.55;100.00;98466.50;15299031;19;20352;-62
2023/12/14 11:35:12;;;;;;;2.47;2.28;;;;;;;3.49;100.00;98473.13;15294050;19;20017;-62
2023/12/14 11:40:39;;;;;;;2.65;2.45;;;;;;;3.43;100.00;98478.06;15295933;19;20014;-63
2023/12/14 11:46:10;;;;;;;2.60;2.40;;;;;;;3.38;100.00;98476.59;15295107;19;20038;-62
2023/12/14 11:51:36;;;;;;;2.30;2.10;;;;;;;3.34;100.00;98490.25;15288093;19;20475;-63
2023/12/14 11:57:04;;;;;;;2.60;2.40;;;;;;;3.36;100.00;98507.81;15293287;19;20432;-63
2023/12/14 12:02:29;;;;;;;2.60;2.40;;;;;;;3.36;100.00;98501.63;15292436;19;20354;-62
2023/12/14 12:07:53;;;;;;;2.85;2.65;;;;;;;3.46;100.00;98515.13;15289202;19;20666;-62
2023/12/14 12:13:22;;;;;;;2.30;2.10;;;;;;;3.50;100.00;98512.13;15284666;19;20022;-62
2023/12/14 12:18:46;;;;;;;2.40;2.20;;;;;;;3.55;100.00;98515.28;15288234;19;20031;-61
2023/12/14 12:24:11;;;;;;;2.30;2.10;;;;;;;3.59;100.00;98525.72;15277121;19;20020;-63
2023/12/14 12:29:46;;;;;;;2.30;2.10;;;;;;;3.59;100.00;98531.88;15286821;19;20018;-63
2023/12/14 12:35:11;;;;;;;2.03;1.92;;;;;;;3.57;100.00;98539.16;15285528;19;20035;-62
2023/12/14 12:40:35;;;;;;;2.20;2.00;;;;;;;3.64;100.00;98535.06;15284161;19;20022;-62
2023/12/14 12:46:09;;;;;;;2.20;2.00;;;;;;;3.70;100.00;98549.75;15284805;19;20023;-62
2023/12/14 12:51:35;;;;;;;1.55;1.45;;;;;;;3.65;100.00;98549.22;15282232;19;20014;-61
2023/12/14 12:56:59;;;;;;;1.92;1.77;;;;;;;3.51;100.00;98551.13;15279294;19;20015;-62
2023/12/14 13:02:26;;;;;;;1.40;1.30;;;;;;;3.49;100.00;98555.72;15279236;19;20455;-62
2023/12/14 13:07:54;;;;;;;1.77;1.67;;;;;;;3.47;100.00;98564.78;15283861;19;20035;-62
2023/12/14 13:13:19;;;;;;;2.20;1.55;;;;;;;3.44;100.00;98570.31;15282712;19;20026;-63
2023/12/14 13:18:47;;;;;;;1.88;1.48;;;;;;;3.44;100.00;98578.31;15282547;19;20017;-62
2023/12/14 13:24:12;;;;;;;1.50;1.40;;;;;;;3.38;100.00;98580.44;15281062;19;20082;-62
2023/12/14 13:29:36;;;;;;;1.45;1.35;;;;;;;3.35;100.00;98588.66;15278746;19;20025;-62
2023/12/14 13:35:03;;;;;;;1.20;1.20;;;;;;;3.34;100.00;98594.09;15279615;19;20025;-62
2023/12/14 13:40:28;;;;;;;1.52;1.42;;;;;;;3.31;100.00;98607.63;15275660;19;20019;-58
2023/12/14 13:45:57;;;;;;;1.90;1.80;;;;;;;3.29;100.00;98617.56;15276813;19;20085;-60
2023/12/14 13:51:39;;;;;;;1.80;1.70;;;;;;;3.24;100.00;98634.72;15281474;19;20631;-59
2023/12/14 13:57:04;;;;;;;2.25;2.05;;;;;;;3.21;100.00;98652.72;15284571;19;20014;-59
2023/12/14 14:02:28;;;;;;;2.78;2.38;;;;;;;3.18;100.00;98660.91;15278871;19;20015;-59
2023/12/14 14:07:55;;;;;;;3.20;2.80;;;;;;;3.15;100.00;98677.09;15282416;19;20018;-59
2023/12/14 14:13:21;;;;;;;2.63;2.25;;;;;;;3.10;100.00;98673.94;15293890;19;20011;-59
2023/12/14 14:18:46;;;;;;;2.72;2.40;;;;;;;3.11;100.00;98691.59;15303075;19;20010;-59
2023/12/14 14:24:13;;;;;;;2.42;2.22;;;;;;;3.10;100.00;98704.06;15297595;19;20018;-58
2023/12/14 14:29:38;;;;;;;2.60;2.40;;;;;;;3.13;100.00;98716.28;15301074;19;20014;-58
2023/12/14 14:35:02;;;;;;;2.72;2.45;;;;;;;3.12;100.00;98725.25;14782839;19;10000611;-58
2023/12/14 14:40:29;;;;;;;3.08;2.63;;;;;;;3.12;100.00;98736.75;15299957;19;20467;-57
2023/12/14 14:45:54;;;;;;;3.28;2.97;;;;;;;3.12;100.00;98743.91;15300141;19;20011;-56
2023/12/14 14:51:19;;;;;;;3.20;2.70;;;;;;;3.17;100.00;98755.06;15298077;19;20022;-60
2023/12/14 14:56:46;;;;;;;3.42;3.13;;;;;;;3.19;100.00;98755.81;15298230;19;20018;-59
2023/12/14 15:02:11;;;;;;;3.45;3.00;;;;;;;3.22;100.00;98761.78;15294205;19;20033;-59
2023/12/14 15:07:35;;;;;;;5.50;3.90;;;;;;;3.22;100.00;98782.25;15291490;19;20369;-57
2023/12/14 15:13:02;;;;;;;4.70;4.22;;;;;;;3.19;100.00;98785.09;15292515;19;20090;-58
2023/12/14 15:18:27;;;;;;;4.88;3.92;;;;;;;3.20;100.00;98792.13;15297955;19;20019;-59
2023/12/14 15:23:52;;;;;;;5.32;4.82;;;;;;;3.23;100.00;98802.59;15289807;19;20023;-58
2023/12/14 15:29:26;;;;;;;5.13;4.60;;;;;;;3.22;100.00;98811.53;15298257;19;20491;-61
2023/12/14 15:34:51;;;;;;;5.88;5.20;;;;;;;3.23;100.00;98815.91;15290529;19;20017;-58
2023/12/14 15:40:18;;;;;;;6.65;5.85;;;;;;;3.22;100.00;98822.19;15293980;19;20014;-60
2023/12/14 15:45:46;;;;;;;6.95;6.20;;;;;;;3.22;100.00;98831.00;15295902;19;20349;-60
2023/12/14 15:51:12;;;;;;;6.07;5.47;;;;;;;3.22;100.00;98839.00;15293214;19;20014;-59
2023/12/14 15:56:37;;;;;;;8.02;6.35;;;;;;;3.25;100.00;98856.56;15291036;19;20014;-57
2023/12/14 16:02:04;;;;;;;6.65;6.05;;;;;;;3.24;100.00;98862.84;15294189;19;20010;-59
2023/12/14 16:07:29;;;;;;;6.65;6.05;;;;;;;3.21;100.00;98884.38;15287936;19;20475;-58
2023/12/14 16:12:53;;;;;;;7.05;6.00;;;;;;;3.21;100.00;98895.03;15289757;19;20485;-58
2023/12/14 16:18:22;;;;;;;8.15;6.18;;;;;;;3.18;100.00;98900.53;15288706;19;20022;-59
2023/12/14 16:23:46;;;;;;;6.75;6.10;;;;;;;3.10;100.00;98909.03;15285919;19;20460;-57
2023/12/14 16:29:11;;;;;;;6.38;5.78;;;;;;;3.02;100.00;98912.22;15291922;19;20021;-59
2023/12/14 16:34:39;;;;;;;6.53;5.93;;;;;;;2.93;100.00;98920.81;15285842;19;20015;-60
2023/12/14 16:40:04;;;;;;;7.50;6.28;;;;;;;2.89;100.00;98932.59;15286313;19;20014;-61
2023/12/14 16:45:28;;;;;;;6.57;5.97;;;;;;;2.81;100.00;98941.09;15290956;19;20021;-61
2023/12/14 16:50:55;;;;;;;7.05;6.35;;;;;;;2.77;100.00;98945.72;15289333;19;20018;-59
2023/12/14 16:56:20;;;;;;;7.20;6.50;;;;;;;2.75;100.00;98947.66;15285865;19;20024;-60
2023/12/14 17:01:45;;;;;;;6.90;6.20;;;;;;;2.71;100.00;98967.44;15288641;19;20015;-59
2023/12/14 17:07:12;;;;;;;7.32;6.50;;;;;;;2.70;100.00;98971.03;15289275;19;20021;-61
2023/12/14 17:12:37;;;;;;;7.15;6.45;;;;;;;2.66;100.00;98982.81;15281052;19;20011;-60
2023/12/14 17:18:01;;;;;;;6.88;6.22;;;;;;;2.69;100.00;98985.28;15287068;19;20014;-58
2023/12/14 17:23:29;;;;;;;8.35;7.13;;;;;;;2.69;100.00;98995.09;15285967;19;20123;-57
2023/12/14 17:28:54;;;;;;;10.50;8.02;;;;;;;2.71;100.00;99010.00;15285634;19;20029;-60
2023/12/14 17:34:20;;;;;;;9.15;8.02;;;;;;;2.73;100.00;99031.19;15282993;19;20011;-60
2023/12/14 17:39:48;;;;;;;8.52;7.43;;;;;;;2.71;100.00;99033.94;15286500;19;20482;-58
2023/12/14 17:45:20;;;;;;;5.88;5.35;;;;;;;2.66;100.00;99036.03;15279732;19;20569;-60
2023/12/14 17:50:45;;;;;;;6.38;5.78;;;;;;;2.62;100.00;99038.03;15301458;19;20010;-58
2023/12/14 17:56:15;;;;;;;6.30;5.70;;;;;;;2.64;100.00;99031.75;15295873;19;20014;-58
2023/12/14 18:01:45;;;;;;;7.57;6.78;;;;;;;2.65;100.00;99042.28;15298473;19;20050;-58
2023/12/14 18:07:09;;;;;;;7.60;6.82;;;;;;;2.62;100.00;99047.84;15300477;19;20037;-59
2023/12/14 18:12:37;;;;;;;8.30;7.43;;;;;;;2.60;100.00;99047.91;15294346;19;20013;-60
2023/12/14 18:18:03;;;;;;;7.70;6.90;;;;;;;2.63;100.00;99049.53;15294649;19;20015;-59
2023/12/14 18:23:34;;;;;;;8.30;7.45;;;;;;;2.65;100.00;99058.25;15295291;19;20021;-59
2023/12/14 18:29:02;;;;;;;7.88;7.10;;;;;;;2.62;100.00;99069.13;15292510;19;20542;-60
2023/12/14 18:34:27;;;;;;;8.23;7.30;;;;;;;2.62;100.00;99075.28;15286614;19;20611;-59
2023/12/14 18:39:52;;;;;;;12.40;8.27;;;;;;;2.61;100.00;99089.53;15297384;19;20351;-58
2023/12/14 18:45:26;;;;;;;9.68;7.50;;;;;;;2.56;100.00;99104.06;15292815;19;20024;-58
2023/12/14 18:50:55;;;;;;;9.85;8.30;;;;;;;2.52;100.00;99102.56;15288356;19;20014;-59
2023/12/14 18:56:20;;;;;;;12.40;9.80;;;;;;;2.53;100.00;99122.88;15293104;19;20016;-59
2023/12/14 19:01:53;;;;;;;13.80;10.82;;;;;;;2.55;100.00;99127.16;15294791;19;20037;-59
2023/12/14 19:07:18;;;;;;;13.82;10.25;;;;;;;2.55;100.00;99148.44;15295847;19;20018;-57
2023/12/14 19:12:47;;;;;;;14.63;10.75;;;;;;;2.55;100.00;99150.22;15292608;19;20022;-58
2023/12/14 19:18:20;;;;;;;14.38;11.32;;;;;;;2.55;100.00;99163.53;15290213;19;20011;-58
2023/12/14 19:23:46;;;;;;;17.98;11.70;;;;;;;2.55;100.00;99180.34;15282357;19;20024;-60
2023/12/14 19:29:13;;;;;;;15.95;11.85;;;;;;;2.57;100.00;99182.91;15295168;19;20017;-61
2023/12/14 19:34:42;;;;;;;15.55;12.13;;;;;;;2.56;100.00;99192.72;15292387;19;20045;-59
2023/12/14 19:40:21;;;;;;;17.55;12.93;;;;;;;2.54;100.00;99193.72;15298426;19;20018;-58
2023/12/14 19:45:48;;;;;;;19.60;13.40;;;;;;;2.50;100.00;99209.03;15281471;19;20347;-63
2023/12/14 19:51:15;;;;;;;19.08;13.60;;;;;;;2.52;100.00;99228.41;15272213;19;20017;-62
2023/12/14 19:56:46;;;;;;;18.00;13.30;;;;;;;2.55;100.00;99228.25;15281908;19;20025;-62
2023/12/14 20:02:14;;;;;;;18.38;13.40;;;;;;;2.57;100.00;99246.75;15290718;19;20007;-63
2023/12/14 20:07:44;;;;;;;16.77;13.32;;;;;;;2.58;100.00;99243.16;15292915;19;20014;-62
2023/12/14 20:13:09;;;;;;;34.55;26.90;;;;;;;2.56;100.00;99245.03;15282853;19;20020;-62
2023/12/14 20:18:38;;;;;;;20.00;14.77;;;;;;;2.57;100.00;99252.09;15292116;19;20363;-63
2023/12/14 20:24:06;;;;;;;17.15;12.80;;;;;;;2.57;100.00;99257.41;15287618;19;20078;-62
2023/12/14 20:29:33;;;;;;;17.23;13.07;;;;;;;2.56;100.00;99263.66;15284748;19;20121;-60
2023/12/14 20:34:57;;;;;;;16.00;11.90;;;;;;;2.57;100.00;99268.03;15286404;19;20102;-64
2023/12/14 20:40:27;;;;;;;16.75;12.15;;;;;;;2.56;100.00;99275.19;15289017;19;20018;-63
2023/12/14 20:45:52;;;;;;;16.48;12.43;;;;;;;2.57;100.00;99286.66;15291531;19;20017;-63
2023/12/14 20:51:19;;;;;;;17.30;12.48;;;;;;;2.57;100.00;99295.53;15287967;19;20368;-62
2023/12/14 20:56:46;;;;;;;16.20;12.73;;;;;;;2.56;100.00;99301.78;15286368;19;20029;-63
2023/12/14 21:02:11;;;;;;;18.73;13.00;;;;;;;2.56;100.00;99307.09;15282589;19;20017;-64
2023/12/14 21:07:44;;;;;;;15.13;12.18;;;;;;;2.58;100.00;99320.31;15287267;19;20025;-61
2023/12/14 21:13:13;;;;;;;14.82;11.93;;;;;;;2.60;100.00;99315.75;15284209;19;20020;-63
2023/12/14 21:18:39;;;;;;;15.10;11.98;;;;;;;2.70;100.00;99330.25;15288197;19;20089;-63
2023/12/14 21:24:06;;;;;;;16.15;11.80;;;;;;;2.71;100.00;99339.06;15281067;19;20021;-63
2023/12/14 21:29:36;;;;;;;13.80;11.00;;;;;;;2.71;100.00;99355.91;15288157;19;20018;-63
2023/12/14 21:35:01;;;;;;;13.60;11.18;;;;;;;2.74;100.00;99347.75;15279426;19;20026;-62
2023/12/14 21:40:25;;;;;;;13.20;10.63;;;;;;;2.81;100.00;99355.38;15288613;19;20515;-63
2023/12/14 21:45:53;;;;;;;11.73;9.50;;;;;;;2.80;100.00;99374.94;15284068;19;20023;-63
2023/12/14 21:51:17;;;;;;;11.88;10.18;;;;;;;2.83;100.00;99364.13;15282567;19;20017;-63
2023/12/14 21:56:42;;;;;;;12.88;10.07;;;;;;;2.87;100.00;99371.84;15282523;19;20010;-64
2023/12/14 22:02:09;;;;;;;11.73;9.75;;;;;;;2.89;100.00;99374.41;15282725;19;20023;-64
2023/12/14 22:07:35;;;;;;;11.90;9.68;;;;;;;3.05;100.00;99380.56;15280135;19;20014;-63
2023/12/14 22:13:00;;;;;;;11.25;10.07;;;;;;;3.20;100.00;99397.44;15280005;19;20618;-63
2023/12/14 22:18:28;;;;;;;12.50;11.32;;;;;;;3.31;100.00;99402.16;15281268;19;20015;-64
2023/12/14 22:23:52;;;;;;;9.00;8.10;;;;;;;3.37;100.00;99412.41;15278084;19;20020;-64
2023/12/14 22:29:17;;;;;;;8.30;7.50;;;;;;;3.45;100.00;99424.44;15284044;19;20022;-64
2023/12/14 22:34:44;;;;;;;8.07;7.28;;;;;;;3.50;100.00;99435.66;15285782;19;20345;-63
2023/12/14 22:40:11;;;;;;;8.65;7.85;;;;;;;3.55;100.00;99437.13;15297500;19;20094;-64
2023/12/14 22:45:42;;;;;;;7.00;6.30;;;;;;;3.62;100.00;99444.75;15292039;19;20019;-64
2023/12/14 22:51:18;;;;;;;6.57;5.97;;;;;;;3.66;100.00;99455.13;15295908;19;20018;-64
2023/12/14 22:56:42;;;;;;;6.75;6.05;;;;;;;3.72;100.00;99464.56;15293335;19;20014;-63
2023/12/14 23:02:07;;;;;;;6.95;5.97;;;;;;;3.71;100.00;99462.84;15294264;19;20018;-63
2023/12/14 23:07:34;;;;;;;7.40;6.70;;;;;;;3.65;100.00;99474.75;15289612;19;20014;-64
2023/12/14 23:12:59;;;;;;;7.35;6.65;;;;;;;3.64;100.00;99475.69;15290561;19;20021;-63
2023/12/14 23:18:23;;;;;;;6.78;6.07;;;;;;;3.62;100.00;99477.56;15288765;19;20014;-63
2023/12/14 23:23:51;;;;;;;7.25;6.30;;;;;;;3.57;100.00;99478.78;15291139;19;20010;-63
2023/12/14 23:29:15;;;;;;;6.50;5.90;;;;;;;3.47;100.00;99489.16;15292480;19;20010;-64
2023/12/14 23:34:40;;;;;;;6.40;5.80;;;;;;;3.37;100.00;99494.16;15289544;19;20011;-64
2023/12/14 23:40:07;;;;;;;6.85;6.15;;;;;;;3.29;100.00;99502.59;15027807;19;5001198;-64
2023/12/14 23:45:32;;;;;;;6.93;6.07;;;;;;;3.31;100.00;99508.69;15286225;19;20375;-64
2023/12/14 23:50:56;;;;;;;6.82;6.22;;;;;;;3.28;100.00;99513.34;15291480;19;20015;-63
2023/12/14 23:56:24;;;;;;;6.82;6.00;;;;;;;3.31;100.00;99524.66;15289437;19;20472;-63
